createdAt,value
2018-06-18T00:01:34.069Z,24.20
2018-06-18T00:04:39.059Z,20.67
2018-06-18T00:07:43.358Z,22.20
2018-06-18T00:10:47.988Z,19.33
2018-06-18T00:13:52.658Z,24.17
2018-06-18T00:16:56.944Z,22.30
2018-06-18T00:20:01.520Z,25.77
2018-06-18T00:23:06.156Z,21.97
2018-06-18T00:26:10.467Z,19.82
2018-06-18T00:29:14.857Z,23.63
2018-06-18T00:32:19.474Z,18.50
2018-06-18T00:35:24.019Z,18.20
2018-06-18T00:38:28.518Z,19.60
2018-06-18T00:41:32.794Z,17.57
2018-06-18T00:44:37.865Z,18.93
2018-06-18T00:47:42.141Z,18.83
2018-06-18T00:50:46.450Z,23.25
2018-06-18T00:53:50.742Z,16.23
2018-06-18T00:56:55.065Z,20.30
2018-06-18T00:59:59.345Z,22.90
2018-06-18T01:03:03.915Z,15.10
2018-06-18T01:06:08.670Z,18.40
2018-06-18T01:09:13.477Z,18.67
2018-06-18T01:12:18.113Z,14.17
2018-06-18T01:15:22.630Z,13.70
2018-06-18T01:18:27.770Z,14.47
2018-06-18T01:21:32.041Z,15.40
2018-06-18T01:25:08.501Z,17.10
2018-06-18T01:28:12.924Z,14.60
2018-06-18T01:31:17.349Z,12.37
2018-06-18T01:34:26.809Z,17.07
2018-06-18T01:37:31.189Z,16.63
2018-06-18T01:40:35.520Z,14.90
2018-06-18T01:43:39.876Z,13.90
2018-06-18T01:46:44.373Z,17.50
2018-06-18T01:49:48.825Z,17.43
2018-06-18T01:52:53.130Z,17.87
2018-06-18T01:55:57.482Z,16.77
2018-06-18T01:59:01.812Z,15.00
2018-06-18T02:02:06.113Z,14.47
2018-06-18T02:05:10.419Z,16.07
2018-06-18T02:08:14.721Z,16.80
2018-06-18T02:11:19.003Z,17.07
2018-06-18T02:14:23.286Z,15.97
2018-06-18T02:17:27.552Z,17.90
2018-06-18T02:20:31.856Z,16.73
2018-06-18T02:23:36.609Z,18.83
2018-06-18T02:26:40.885Z,15.87
2018-06-18T02:29:51.536Z,14.00
2018-06-18T02:33:01.096Z,17.20
2018-06-18T02:36:10.504Z,19.43
2018-06-18T02:39:15.761Z,14.97
2018-06-18T02:42:20.054Z,15.10
2018-06-18T02:45:24.341Z,15.00
2018-06-18T02:48:28.626Z,14.67
2018-06-18T02:51:32.895Z,17.57
2018-06-18T02:54:37.241Z,13.73
2018-06-18T02:57:41.842Z,14.93
2018-06-18T03:00:46.147Z,18.77
2018-06-18T03:03:50.420Z,16.10
2018-06-18T03:06:54.694Z,19.13
2018-06-18T03:09:58.978Z,15.67
2018-06-18T03:13:03.510Z,16.43
2018-06-18T03:16:07.833Z,14.30
2018-06-18T03:19:17.844Z,13.20
2018-06-18T03:22:27.781Z,15.63
2018-06-18T03:25:37.504Z,11.63
2018-06-18T03:28:47.300Z,12.00
2018-06-18T03:31:53.735Z,10.80
2018-06-18T03:34:58.135Z,13.97
2018-06-18T03:38:03.237Z,13.00
2018-06-18T03:41:08.898Z,15.00
2018-06-18T03:44:19.076Z,12.23
2018-06-18T03:47:28.853Z,12.00
2018-06-18T03:50:33.385Z,16.67
2018-06-18T03:53:37.660Z,13.87
2018-06-18T03:56:42.472Z,11.67
2018-06-18T03:59:47.184Z,12.97
2018-06-18T04:03:00.660Z,12.10
2018-06-18T04:06:10.098Z,14.55
2018-06-18T04:09:19.822Z,14.40
2018-06-18T04:12:24.361Z,12.43
2018-06-18T04:15:28.769Z,11.23
2018-06-18T04:18:33.173Z,13.97
2018-06-18T04:21:37.453Z,11.13
2018-06-18T04:24:41.746Z,10.33
2018-06-18T04:27:46.442Z,9.87
2018-06-18T04:30:50.873Z,11.80
2018-06-18T04:34:06.064Z,12.67
2018-06-18T04:37:10.373Z,11.97
2018-06-18T04:40:14.657Z,11.90
2018-06-18T04:43:24.197Z,11.20
2018-06-18T04:46:33.952Z,11.37
2018-06-18T04:50:43.605Z,13.90
2018-06-18T04:53:48.302Z,12.93
2018-06-18T04:56:52.666Z,10.33
2018-06-18T05:01:11.955Z,10.03
2018-06-18T05:04:16.280Z,9.07
2018-06-18T05:07:22.806Z,7.53
2018-06-18T05:10:29.352Z,7.73
2018-06-18T05:13:33.917Z,7.63
2018-06-18T05:16:39.420Z,10.97
2018-06-18T05:19:43.753Z,7.70
2018-06-18T05:22:48.217Z,8.57
2018-06-18T05:26:01.129Z,7.10
2018-06-18T05:29:05.717Z,6.10
2018-06-18T05:32:11.095Z,6.13
2018-06-18T05:35:15.494Z,7.30
2018-06-18T05:38:30.734Z,7.17
2018-06-18T05:41:35.376Z,7.00
2018-06-18T05:44:41.353Z,9.43
2018-06-18T05:47:45.763Z,7.90
2018-06-18T05:50:50.911Z,7.40
2018-06-18T05:53:55.358Z,7.67
2018-06-18T05:56:59.769Z,9.83
2018-06-18T06:00:05.224Z,10.30
2018-06-18T06:03:09.889Z,8.67
2018-06-18T06:06:14.619Z,5.40
2018-06-18T06:09:18.957Z,7.60
2018-06-18T06:12:23.256Z,5.00
2018-06-18T06:15:27.652Z,5.30
2018-06-18T06:18:32.018Z,9.13
2018-06-18T06:21:36.501Z,5.37
2018-06-18T06:24:41.901Z,6.27
2018-06-18T06:27:46.465Z,4.53
2018-06-18T06:30:50.894Z,7.17
2018-06-18T06:33:55.202Z,6.03
2018-06-18T06:36:59.646Z,6.73
2018-06-18T06:40:04.026Z,6.43
2018-06-18T06:43:08.725Z,7.33
2018-06-18T06:46:13.048Z,9.63
2018-06-18T06:49:17.587Z,7.07
2018-06-18T06:52:21.930Z,6.93
2018-06-18T06:55:27.888Z,7.40
2018-06-18T06:58:32.508Z,5.57
2018-06-18T07:01:37.864Z,5.20
2018-06-18T07:04:42.484Z,9.30
2018-06-18T07:07:46.865Z,8.73
2018-06-18T07:10:51.200Z,7.17
2018-06-18T07:13:59.403Z,5.33
2018-06-18T07:17:03.891Z,5.13
2018-06-18T07:20:08.381Z,7.23
2018-06-18T07:23:12.900Z,4.73
2018-06-18T07:26:17.326Z,10.40
2018-06-18T07:29:22.442Z,5.20
2018-06-18T07:32:26.887Z,4.70
2018-06-18T07:35:31.233Z,8.10
2018-06-18T07:38:37.318Z,6.40
2018-06-18T07:41:41.952Z,8.30
2018-06-18T07:44:48.226Z,6.63
2018-06-18T07:47:53.937Z,5.57
2018-06-18T07:50:58.954Z,5.23
2018-06-18T07:54:04.106Z,5.33
2018-06-18T07:57:18.659Z,7.00
2018-06-18T08:00:30.026Z,5.10
2018-06-18T08:03:35.605Z,7.13
2018-06-18T08:07:01.868Z,4.67
2018-06-18T08:10:07.259Z,4.53
2018-06-18T08:13:13.934Z,4.83
2018-06-18T08:16:19.937Z,4.65
2018-06-18T08:19:24.414Z,4.30
2018-06-18T08:22:29.179Z,4.37
2018-06-18T08:25:36.581Z,7.37
2018-06-18T08:28:42.134Z,7.33
2018-06-18T08:37:08.891Z,5.67
2018-06-18T08:40:15.861Z,4.67
2018-06-18T08:46:55.835Z,4.03
2018-06-18T08:50:05.365Z,5.20
2018-06-18T08:53:16.395Z,4.00
2018-06-18T08:56:27.583Z,3.40
2018-06-18T08:59:37.426Z,5.70
2018-06-18T09:02:47.175Z,3.93
2018-06-18T09:06:02.525Z,4.03
2018-06-18T09:09:09.529Z,6.90
2018-06-18T09:12:13.930Z,4.37
2018-06-18T09:15:18.365Z,8.47
2018-06-18T09:18:23.278Z,4.90
2018-06-18T09:21:27.644Z,2.90
2018-06-18T09:24:34.710Z,4.80
2018-06-18T09:27:39.072Z,3.97
2018-06-18T09:30:43.435Z,4.43
2018-06-18T09:33:48.018Z,3.93
2018-06-18T09:36:52.421Z,3.37
2018-06-18T09:39:56.753Z,4.17
2018-06-18T09:43:01.182Z,4.40
2018-06-18T09:46:05.633Z,2.87
2018-06-18T09:49:15.829Z,2.90
2018-06-18T09:52:25.199Z,3.70
2018-06-18T09:55:35.009Z,4.93
2018-06-18T09:58:44.914Z,3.97
2018-06-18T10:01:49.957Z,3.83
2018-06-18T10:04:54.262Z,4.60
2018-06-18T10:07:58.627Z,4.13
2018-06-18T10:11:04.203Z,3.40
2018-06-18T10:14:12.111Z,2.00
2018-06-18T10:17:16.678Z,3.30
2018-06-18T10:20:21.044Z,1.90
2018-06-18T10:23:25.350Z,3.13
2018-06-18T10:26:29.852Z,2.50
2018-06-18T10:29:34.392Z,2.13
2018-06-18T10:32:44.028Z,4.23
2018-06-18T10:35:53.492Z,3.93
2018-06-18T10:39:03.309Z,5.07
2018-06-18T10:42:12.927Z,4.67
2018-06-18T10:45:17.601Z,3.10
2018-06-18T10:48:22.285Z,3.23
2018-06-18T10:51:27.383Z,2.30
2018-06-18T10:54:31.726Z,2.40
2018-06-18T10:57:36.649Z,3.57
2018-06-18T11:00:40.992Z,2.20
2018-06-18T11:03:45.328Z,4.77
2018-06-18T11:06:49.628Z,3.43
2018-06-18T11:09:54.155Z,5.13
2018-06-18T11:12:58.582Z,2.10
2018-06-18T11:16:03.242Z,3.63
2018-06-18T11:19:12.701Z,3.27
2018-06-18T11:22:18.636Z,4.10
2018-06-18T11:25:28.278Z,1.90
2018-06-18T11:28:32.431Z,3.63
2018-06-18T11:31:36.726Z,4.15
2018-06-18T11:34:41.039Z,4.93
2018-06-18T11:37:45.529Z,3.03
2018-06-18T11:40:50.145Z,4.47
2018-06-18T11:43:54.471Z,2.37
2018-06-18T11:46:59.114Z,3.97
2018-06-18T11:50:03.529Z,2.30
2018-06-18T11:53:08.540Z,3.63
2018-06-18T11:56:12.894Z,3.00
2018-06-18T11:59:22.582Z,2.60
2018-06-18T12:02:32.448Z,2.27
2018-06-18T12:05:42.810Z,3.73
2018-06-18T12:08:53.497Z,2.77
2018-06-18T12:11:57.967Z,2.87
2018-06-18T12:15:02.447Z,3.07
2018-06-18T12:18:06.831Z,2.47
2018-06-18T12:21:11.280Z,2.70
2018-06-18T12:24:15.777Z,2.57
2018-06-18T12:27:25.674Z,2.57
2018-06-18T12:30:31.052Z,4.27
2018-06-18T12:33:36.042Z,3.07
2018-06-18T12:36:40.467Z,3.53
2018-06-18T12:39:47.540Z,3.40
2018-06-18T12:42:51.940Z,4.07
2018-06-18T12:46:01.898Z,5.40
2018-06-18T12:49:11.829Z,6.67
2018-06-18T12:52:21.753Z,4.67
2018-06-18T12:55:31.507Z,2.83
2018-06-18T12:58:35.925Z,2.40
2018-06-18T13:01:49.973Z,2.33
2018-06-18T13:04:57.957Z,2.23
2018-06-18T13:08:02.901Z,3.97
2018-06-18T13:11:07.480Z,3.17
2018-06-18T13:14:11.923Z,3.07
2018-06-18T13:17:17.096Z,3.50
2018-06-18T13:20:22.009Z,2.47
2018-06-18T13:23:26.490Z,3.67
2018-06-18T13:26:31.098Z,2.33
2018-06-18T13:29:35.542Z,5.33
2018-06-18T13:32:40.614Z,2.27
2018-06-18T13:35:45.725Z,2.17
2018-06-18T13:38:55.365Z,1.80
2018-06-18T13:42:06.600Z,3.60
2018-06-18T13:45:16.326Z,2.03
2018-06-18T13:48:24.849Z,3.80
2018-06-18T13:51:29.965Z,1.95
2018-06-18T13:54:34.661Z,3.37
2018-06-18T13:57:38.958Z,4.93
2018-06-18T14:00:43.452Z,3.90
2018-06-18T14:03:48.641Z,1.87
2018-06-18T14:06:53.337Z,2.23
2018-06-18T14:09:57.636Z,3.27
2018-06-18T14:13:02.245Z,2.37
2018-06-18T14:16:06.735Z,3.37
2018-06-18T14:19:16.130Z,2.37
2018-06-18T14:22:20.509Z,2.67
2018-06-18T14:25:25.208Z,3.10
2018-06-18T14:28:29.513Z,2.53
2018-06-18T14:31:39.120Z,6.63
2018-06-18T14:34:48.791Z,2.00
2018-06-18T14:37:58.445Z,2.87
2018-06-18T14:41:02.901Z,2.40
2018-06-18T14:44:07.408Z,5.30
2018-06-18T14:47:12.221Z,1.97
2018-06-18T14:50:16.761Z,2.17
2018-06-18T14:53:21.347Z,2.17
2018-06-18T14:56:31.027Z,3.30
2018-06-18T14:59:45.804Z,1.80
2018-06-18T15:02:50.369Z,1.50
2018-06-18T15:05:54.984Z,3.17
2018-06-18T15:09:00.531Z,6.33
2018-06-18T15:12:05.706Z,1.73
2018-06-18T15:15:15.485Z,2.47
2018-06-18T15:18:19.791Z,2.53
2018-06-18T15:21:24.311Z,4.83
2018-06-18T15:24:56.021Z,3.00
2018-06-18T15:28:00.490Z,4.23
2018-06-18T15:31:05.602Z,4.43
2018-06-18T15:34:10.409Z,3.20
2018-06-18T15:37:15.298Z,4.37
2018-06-18T15:40:20.839Z,3.57
2018-06-18T15:43:25.571Z,2.07
2018-06-18T15:46:30.129Z,5.10
2018-06-18T15:49:34.777Z,3.07
2018-06-18T15:52:39.805Z,3.57
2018-06-18T15:55:44.326Z,1.87
2018-06-18T15:58:48.920Z,2.87
2018-06-18T16:01:55.223Z,3.87
2018-06-18T16:04:59.720Z,2.10
2018-06-18T16:08:04.640Z,2.93
2018-06-18T16:11:08.856Z,3.73
2018-06-18T16:14:13.279Z,3.93
2018-06-18T16:17:18.020Z,5.07
2018-06-18T16:20:23.049Z,2.15
2018-06-18T16:23:27.569Z,1.70
2018-06-18T16:26:32.141Z,2.90
2018-06-18T16:29:36.929Z,3.33
2018-06-18T16:32:41.552Z,1.60
2018-06-18T16:35:46.101Z,2.00
2018-06-18T16:38:50.468Z,5.23
2018-06-18T16:41:55.482Z,5.17
2018-06-18T16:45:00.104Z,4.67
2018-06-18T16:48:05.013Z,1.80
2018-06-18T16:51:09.526Z,2.10
2018-06-18T16:54:14.161Z,3.70
2018-06-18T16:57:19.310Z,2.60
2018-06-18T17:00:23.865Z,3.47
2018-06-18T17:03:28.561Z,1.63
2018-06-18T17:06:32.985Z,2.40
2018-06-18T17:09:37.388Z,2.33
2018-06-18T17:12:42.122Z,2.40
2018-06-18T17:15:46.977Z,3.07
2018-06-18T17:18:51.686Z,3.00
2018-06-18T17:21:56.384Z,3.23
2018-06-18T17:25:00.715Z,2.23
2018-06-18T17:28:05.466Z,2.57
2018-06-18T17:31:10.556Z,2.73
2018-06-18T17:34:15.261Z,2.20
2018-06-18T17:37:19.624Z,4.07
2018-06-18T17:40:24.231Z,2.33
2018-06-18T17:43:29.193Z,2.30
2018-06-18T17:46:33.766Z,2.70
2018-06-18T17:49:38.496Z,3.43
2018-06-18T17:52:42.948Z,2.20
2018-06-18T17:55:47.739Z,3.10
2018-06-18T17:58:52.368Z,2.13
2018-06-18T18:01:56.875Z,2.23
2018-06-18T18:05:01.262Z,2.33
2018-06-18T18:08:06.000Z,3.03
2018-06-18T18:11:10.720Z,3.00
2018-06-18T18:14:15.891Z,4.27
2018-06-18T18:17:20.418Z,4.03
2018-06-18T18:20:25.712Z,6.07
2018-06-18T18:23:30.065Z,1.93
2018-06-18T18:26:34.485Z,5.30
2018-06-18T18:29:38.869Z,1.97
2018-06-18T18:32:43.199Z,2.43
2018-06-18T18:35:47.574Z,6.17
2018-06-18T18:38:51.891Z,4.30
2018-06-18T18:41:56.469Z,1.77
2018-06-18T18:45:01.132Z,6.60
2018-06-18T18:48:05.773Z,4.37
2018-06-18T18:51:10.288Z,3.43
2018-06-18T18:55:30.533Z,3.13
2018-06-18T18:59:50.302Z,3.23
2018-06-18T19:02:54.935Z,2.77
2018-06-18T19:06:00.372Z,2.57
2018-06-18T19:09:07.407Z,4.83
2018-06-18T19:12:11.810Z,2.20
2018-06-18T19:15:16.599Z,2.67
2018-06-18T19:18:21.034Z,2.50
2018-06-18T19:21:25.545Z,1.87
2018-06-18T19:24:29.936Z,2.40
2018-06-18T19:27:34.790Z,3.63
2018-06-18T19:30:42.083Z,3.43
2018-06-18T19:34:08.625Z,4.47
2018-06-18T19:37:14.345Z,3.77
2018-06-18T19:40:19.922Z,2.70
2018-06-18T19:43:24.221Z,4.67
2018-06-18T19:46:36.361Z,3.13
2018-06-18T19:49:41.378Z,5.37
2018-06-18T19:52:45.682Z,3.67
2018-06-18T19:55:51.197Z,3.33
2018-06-18T19:58:56.442Z,6.60
2018-06-18T20:02:00.790Z,5.57
2018-06-18T20:05:10.309Z,5.80
2018-06-18T20:08:21.024Z,6.40
2018-06-18T20:11:25.844Z,8.47
2018-06-18T20:14:30.317Z,6.77
2018-06-18T20:17:35.152Z,6.67
2018-06-18T20:20:39.823Z,5.57
2018-06-18T20:23:44.367Z,7.37
2018-06-18T20:26:49.439Z,8.10
2018-06-18T20:29:53.729Z,6.23
2018-06-18T20:32:58.038Z,4.80
2018-06-18T20:36:12.876Z,7.40
2018-06-18T20:39:17.246Z,4.43
2018-06-18T20:42:22.706Z,4.10
2018-06-18T20:45:27.818Z,5.17
2018-06-18T20:48:32.440Z,6.53
2018-06-18T20:51:36.777Z,5.60
2018-06-18T20:54:41.090Z,4.97
2018-06-18T20:57:48.377Z,5.13
2018-06-18T21:00:53.349Z,5.60
2018-06-18T21:03:59.426Z,8.20
2018-06-18T21:07:05.584Z,8.93
2018-06-18T21:10:09.624Z,5.13
2018-06-18T21:13:14.348Z,10.53
2018-06-18T21:16:20.185Z,7.43
2018-06-18T21:19:24.603Z,5.50
2018-06-18T21:22:29.138Z,5.60
2018-06-18T21:25:34.069Z,7.73
2018-06-18T21:28:40.334Z,6.33
2018-06-18T21:31:44.690Z,5.47
2018-06-18T21:34:49.196Z,5.93
2018-06-18T21:37:54.101Z,8.23
2018-06-18T21:40:58.458Z,6.83
2018-06-18T21:44:02.631Z,5.77
2018-06-18T21:47:07.005Z,7.00
2018-06-18T21:50:11.286Z,7.43
2018-06-18T21:53:15.603Z,6.33
2018-06-18T21:56:20.092Z,6.40
2018-06-18T21:59:24.431Z,5.93
2018-06-18T22:02:28.923Z,7.17
2018-06-18T22:05:33.130Z,6.27
2018-06-18T22:08:37.240Z,13.03
2018-06-18T22:11:43.023Z,6.07
2018-06-18T22:14:47.407Z,5.67
2018-06-18T22:17:51.812Z,6.93
2018-06-18T22:20:56.094Z,7.07
2018-06-18T22:24:00.420Z,6.63
2018-06-18T22:27:05.000Z,7.77
2018-06-18T22:30:09.333Z,6.57
2018-06-18T22:33:13.636Z,6.03
2018-06-18T22:36:17.942Z,8.60
2018-06-18T22:39:22.241Z,7.77
2018-06-18T22:42:26.618Z,8.57
2018-06-18T22:45:31.673Z,7.20
2018-06-18T22:48:36.054Z,7.03
2018-06-18T22:51:40.421Z,6.73
2018-06-18T22:54:48.122Z,7.47
2018-06-18T22:57:52.559Z,7.00
2018-06-18T23:00:59.912Z,5.87
2018-06-18T23:04:04.487Z,6.40
2018-06-18T23:07:09.120Z,6.10
2018-06-18T23:10:13.494Z,6.90
2018-06-18T23:13:21.768Z,6.80
2018-06-18T23:16:26.070Z,6.25
2018-06-18T23:19:31.338Z,6.20
2018-06-18T23:22:35.661Z,5.90
2018-06-18T23:25:40.035Z,6.40
2018-06-18T23:28:50.124Z,5.70
2018-06-18T23:31:54.482Z,5.13
2018-06-18T23:34:59.630Z,5.23
2018-06-18T23:38:03.978Z,6.67
2018-06-18T23:41:08.244Z,5.07
2018-06-18T23:44:12.556Z,4.70
2018-06-18T23:47:16.890Z,6.13
2018-06-18T23:50:21.384Z,7.05
2018-06-18T23:53:25.719Z,6.70
2018-06-18T23:56:30.365Z,4.90
2018-06-18T23:59:34.670Z,4.90
